sensor_id;sensor_type;location;lat;lon;timestamp;P1;durP1;ratioP1;P2;durP2;ratioP2
69410;SDS011;56604;48.652;9.194;2023-04-06T00:00:50;10.00;;;6.80;;
69410;SDS011;56604;48.652;9.194;2023-04-06T00:03:16;9.53;;;7.30;;
69410;SDS011;56604;48.652;9.194;2023-04-06T00:05:41;12.00;;;7.73;;
69410;SDS011;56604;48.652;9.194;2023-04-06T00:08:07;11.17;;;7.70;;
69410;SDS011;56604;48.652;9.194;2023-04-06T00:10:33;13.43;;;7.43;;
69410;SDS011;56604;48.652;9.194;2023-04-06T00:12:58;9.40;;;7.40;;
69410;SDS011;56604;48.652;9.194;2023-04-06T00:15:24;10.97;;;7.27;;
69410;SDS011;56604;48.652;9.194;2023-04-06T00:17:50;13.63;;;7.90;;
69410;SDS011;56604;48.652;9.194;2023-04-06T00:20:16;16.10;;;8.17;;
69410;SDS011;56604;48.652;9.194;2023-04-06T00:22:42;13.00;;;7.33;;
69410;SDS011;56604;48.652;9.194;2023-04-06T00:25:08;20.93;;;7.67;;
69410;SDS011;56604;48.652;9.194;2023-04-06T00:27:35;10.73;;;6.40;;
69410;SDS011;56604;48.652;9.194;2023-04-06T00:30:00;11.13;;;7.00;;
69410;SDS011;56604;48.652;9.194;2023-04-06T00:32:26;20.63;;;7.40;;
69410;SDS011;56604;48.652;9.194;2023-04-06T00:34:52;15.17;;;6.50;;
69410;SDS011;56604;48.652;9.194;2023-04-06T00:37:18;13.03;;;7.37;;
69410;SDS011;56604;48.652;9.194;2023-04-06T00:39:44;11.27;;;6.90;;
69410;SDS011;56604;48.652;9.194;2023-04-06T00:42:13;12.53;;;7.30;;
69410;SDS011;56604;48.652;9.194;2023-04-06T00:44:39;9.80;;;7.50;;
69410;SDS011;56604;48.652;9.194;2023-04-06T00:47:06;14.77;;;7.80;;
69410;SDS011;56604;48.652;9.194;2023-04-06T00:49:32;12.13;;;6.80;;
69410;SDS011;56604;48.652;9.194;2023-04-06T00:51:58;11.00;;;7.83;;
69410;SDS011;56604;48.652;9.194;2023-04-06T00:54:23;12.27;;;7.23;;
69410;SDS011;56604;48.652;9.194;2023-04-06T00:56:49;10.30;;;7.10;;
69410;SDS011;56604;48.652;9.194;2023-04-06T00:59:14;10.93;;;7.30;;
69410;SDS011;56604;48.652;9.194;2023-04-06T01:01:40;9.47;;;7.07;;
69410;SDS011;56604;48.652;9.194;2023-04-06T01:04:05;10.33;;;7.33;;
69410;SDS011;56604;48.652;9.194;2023-04-06T01:06:31;11.80;;;7.17;;
69410;SDS011;56604;48.652;9.194;2023-04-06T01:08:56;16.43;;;6.90;;
69410;SDS011;56604;48.652;9.194;2023-04-06T01:11:22;8.43;;;6.73;;
69410;SDS011;56604;48.652;9.194;2023-04-06T01:13:47;11.97;;;7.07;;
69410;SDS011;56604;48.652;9.194;2023-04-06T01:16:13;11.90;;;6.97;;
69410;SDS011;56604;48.652;9.194;2023-04-06T01:18:38;11.37;;;7.33;;
69410;SDS011;56604;48.652;9.194;2023-04-06T01:21:03;12.10;;;7.17;;
69410;SDS011;56604;48.652;9.194;2023-04-06T01:23:29;15.33;;;6.47;;
69410;SDS011;56604;48.652;9.194;2023-04-06T01:25:54;10.93;;;7.30;;
69410;SDS011;56604;48.652;9.194;2023-04-06T01:28:20;13.13;;;7.03;;
69410;SDS011;56604;48.652;9.194;2023-04-06T01:30:45;10.47;;;6.67;;
69410;SDS011;56604;48.652;9.194;2023-04-06T01:33:11;8.17;;;6.33;;
69410;SDS011;56604;48.652;9.194;2023-04-06T01:35:36;8.30;;;7.10;;
69410;SDS011;56604;48.652;9.194;2023-04-06T01:38:02;10.63;;;6.63;;
69410;SDS011;56604;48.652;9.194;2023-04-06T01:40:27;8.90;;;6.60;;
69410;SDS011;56604;48.652;9.194;2023-04-06T01:42:52;10.80;;;6.27;;
69410;SDS011;56604;48.652;9.194;2023-04-06T01:45:18;9.80;;;6.90;;
69410;SDS011;56604;48.652;9.194;2023-04-06T01:47:43;10.33;;;7.23;;
69410;SDS011;56604;48.652;9.194;2023-04-06T01:50:09;9.17;;;6.87;;
69410;SDS011;56604;48.652;9.194;2023-04-06T01:52:34;12.60;;;7.33;;
69410;SDS011;56604;48.652;9.194;2023-04-06T01:54:59;9.20;;;7.10;;
69410;SDS011;56604;48.652;9.194;2023-04-06T01:57:25;9.33;;;7.07;;
69410;SDS011;56604;48.652;9.194;2023-04-06T01:59:50;11.87;;;7.70;;
69410;SDS011;56604;48.652;9.194;2023-04-06T02:02:16;11.47;;;7.60;;
69410;SDS011;56604;48.652;9.194;2023-04-06T02:04:41;13.83;;;7.23;;
69410;SDS011;56604;48.652;9.194;2023-04-06T02:07:07;8.67;;;7.17;;
69410;SDS011;56604;48.652;9.194;2023-04-06T02:09:32;14.40;;;6.73;;
69410;SDS011;56604;48.652;9.194;2023-04-06T02:11:57;10.53;;;7.10;;
69410;SDS011;56604;48.652;9.194;2023-04-06T02:14:26;11.13;;;7.90;;
69410;SDS011;56604;48.652;9.194;2023-04-06T02:16:51;12.83;;;7.77;;
69410;SDS011;56604;48.652;9.194;2023-04-06T02:19:16;12.57;;;7.87;;
69410;SDS011;56604;48.652;9.194;2023-04-06T02:21:42;12.70;;;6.77;;
69410;SDS011;56604;48.652;9.194;2023-04-06T02:24:07;9.20;;;6.83;;
69410;SDS011;56604;48.652;9.194;2023-04-06T02:26:33;10.27;;;7.17;;
69410;SDS011;56604;48.652;9.194;2023-04-06T02:28:58;12.33;;;7.97;;
69410;SDS011;56604;48.652;9.194;2023-04-06T02:31:23;9.27;;;6.50;;
69410;SDS011;56604;48.652;9.194;2023-04-06T02:33:49;9.67;;;6.70;;
69410;SDS011;56604;48.652;9.194;2023-04-06T02:36:14;11.53;;;7.73;;
69410;SDS011;56604;48.652;9.194;2023-04-06T02:38:40;9.27;;;7.57;;
69410;SDS011;56604;48.652;9.194;2023-04-06T02:41:05;13.60;;;7.20;;
69410;SDS011;56604;48.652;9.194;2023-04-06T02:43:31;9.83;;;6.90;;
69410;SDS011;56604;48.652;9.194;2023-04-06T02:45:56;10.20;;;7.30;;
69410;SDS011;56604;48.652;9.194;2023-04-06T02:48:21;9.80;;;6.30;;
69410;SDS011;56604;48.652;9.194;2023-04-06T02:50:47;13.60;;;6.97;;
69410;SDS011;56604;48.652;9.194;2023-04-06T02:53:12;9.27;;;6.40;;
69410;SDS011;56604;48.652;9.194;2023-04-06T02:55:37;12.47;;;7.30;;
69410;SDS011;56604;48.652;9.194;2023-04-06T02:58:03;12.07;;;7.47;;
69410;SDS011;56604;48.652;9.194;2023-04-06T03:00:28;11.47;;;7.63;;
69410;SDS011;56604;48.652;9.194;2023-04-06T03:02:53;11.43;;;7.43;;
69410;SDS011;56604;48.652;9.194;2023-04-06T03:05:19;10.60;;;7.00;;
69410;SDS011;56604;48.652;9.194;2023-04-06T03:07:45;19.93;;;6.83;;
69410;SDS011;56604;48.652;9.194;2023-04-06T03:10:10;11.87;;;6.60;;
69410;SDS011;56604;48.652;9.194;2023-04-06T03:12:36;11.43;;;7.13;;
69410;SDS011;56604;48.652;9.194;2023-04-06T03:15:01;17.33;;;7.00;;
69410;SDS011;56604;48.652;9.194;2023-04-06T03:17:27;10.50;;;6.90;;
69410;SDS011;56604;48.652;9.194;2023-04-06T03:19:52;12.67;;;7.37;;
69410;SDS011;56604;48.652;9.194;2023-04-06T03:22:19;9.63;;;7.10;;
69410;SDS011;56604;48.652;9.194;2023-04-06T03:24:44;11.17;;;6.90;;
69410;SDS011;56604;48.652;9.194;2023-04-06T03:27:10;11.47;;;6.90;;
69410;SDS011;56604;48.652;9.194;2023-04-06T03:29:35;9.37;;;6.77;;
69410;SDS011;56604;48.652;9.194;2023-04-06T03:32:00;8.23;;;7.00;;
69410;SDS011;56604;48.652;9.194;2023-04-06T03:34:26;11.53;;;6.63;;
69410;SDS011;56604;48.652;9.194;2023-04-06T03:36:51;9.60;;;7.30;;
69410;SDS011;56604;48.652;9.194;2023-04-06T03:39:16;16.23;;;7.00;;
69410;SDS011;56604;48.652;9.194;2023-04-06T03:41:42;9.20;;;7.00;;
69410;SDS011;56604;48.652;9.194;2023-04-06T03:44:09;8.63;;;6.50;;
69410;SDS011;56604;48.652;9.194;2023-04-06T03:46:34;9.73;;;6.97;;
69410;SDS011;56604;48.652;9.194;2023-04-06T03:49:00;8.37;;;6.37;;
69410;SDS011;56604;48.652;9.194;2023-04-06T03:51:25;12.70;;;8.27;;
69410;SDS011;56604;48.652;9.194;2023-04-06T03:53:51;10.50;;;7.40;;
69410;SDS011;56604;48.652;9.194;2023-04-06T03:56:16;15.27;;;7.57;;
69410;SDS011;56604;48.652;9.194;2023-04-06T03:58:41;13.27;;;7.90;;
69410;SDS011;56604;48.652;9.194;2023-04-06T04:01:09;18.40;;;8.30;;
69410;SDS011;56604;48.652;9.194;2023-04-06T04:03:34;11.43;;;7.63;;
69410;SDS011;56604;48.652;9.194;2023-04-06T04:06:00;16.43;;;7.27;;
69410;SDS011;56604;48.652;9.194;2023-04-06T04:08:25;13.10;;;7.30;;
69410;SDS011;56604;48.652;9.194;2023-04-06T04:10:50;9.47;;;7.27;;
69410;SDS011;56604;48.652;9.194;2023-04-06T04:13:16;11.20;;;7.87;;
69410;SDS011;56604;48.652;9.194;2023-04-06T04:15:42;10.47;;;7.90;;
69410;SDS011;56604;48.652;9.194;2023-04-06T04:18:07;12.10;;;7.20;;
69410;SDS011;56604;48.652;9.194;2023-04-06T04:20:32;12.07;;;7.30;;
69410;SDS011;56604;48.652;9.194;2023-04-06T04:22:59;10.43;;;8.10;;
69410;SDS011;56604;48.652;9.194;2023-04-06T04:25:24;10.90;;;7.40;;
69410;SDS011;56604;48.652;9.194;2023-04-06T04:27:49;14.63;;;7.73;;
69410;SDS011;56604;48.652;9.194;2023-04-06T04:30:15;14.87;;;7.57;;
69410;SDS011;56604;48.652;9.194;2023-04-06T04:32:41;8.67;;;7.23;;
69410;SDS011;56604;48.652;9.194;2023-04-06T04:35:06;10.17;;;7.90;;
69410;SDS011;56604;48.652;9.194;2023-04-06T04:37:32;13.70;;;8.10;;
69410;SDS011;56604;48.652;9.194;2023-04-06T04:39:59;11.43;;;7.70;;
69410;SDS011;56604;48.652;9.194;2023-04-06T04:42:25;10.00;;;7.10;;
69410;SDS011;56604;48.652;9.194;2023-04-06T04:44:50;13.03;;;7.53;;
69410;SDS011;56604;48.652;9.194;2023-04-06T04:47:15;11.47;;;7.53;;
69410;SDS011;56604;48.652;9.194;2023-04-06T04:49:41;9.20;;;6.80;;
69410;SDS011;56604;48.652;9.194;2023-04-06T04:52:06;9.20;;;7.60;;
69410;SDS011;56604;48.652;9.194;2023-04-06T04:54:31;10.60;;;7.90;;
69410;SDS011;56604;48.652;9.194;2023-04-06T04:56:57;11.53;;;7.90;;
69410;SDS011;56604;48.652;9.194;2023-04-06T04:59:22;12.70;;;8.03;;
69410;SDS011;56604;48.652;9.194;2023-04-06T05:01:47;8.57;;;7.07;;
69410;SDS011;56604;48.652;9.194;2023-04-06T05:04:13;10.23;;;6.80;;
69410;SDS011;56604;48.652;9.194;2023-04-06T05:06:38;10.03;;;7.20;;
69410;SDS011;56604;48.652;9.194;2023-04-06T05:09:03;10.27;;;7.00;;
69410;SDS011;56604;48.652;9.194;2023-04-06T05:11:29;9.97;;;7.57;;
69410;SDS011;56604;48.652;9.194;2023-04-06T05:13:54;11.43;;;7.30;;
69410;SDS011;56604;48.652;9.194;2023-04-06T05:16:20;10.00;;;7.40;;
69410;SDS011;56604;48.652;9.194;2023-04-06T05:18:47;14.17;;;7.40;;
69410;SDS011;56604;48.652;9.194;2023-04-06T05:21:13;12.30;;;7.80;;
69410;SDS011;56604;48.652;9.194;2023-04-06T05:23:39;9.27;;;7.30;;
69410;SDS011;56604;48.652;9.194;2023-04-06T05:26:05;12.50;;;8.13;;
69410;SDS011;56604;48.652;9.194;2023-04-06T05:28:30;10.50;;;7.37;;
69410;SDS011;56604;48.652;9.194;2023-04-06T05:30:57;10.40;;;7.37;;
69410;SDS011;56604;48.652;9.194;2023-04-06T05:33:22;19.20;;;8.70;;
69410;SDS011;56604;48.652;9.194;2023-04-06T05:35:48;10.40;;;7.33;;
69410;SDS011;56604;48.652;9.194;2023-04-06T05:38:13;10.20;;;7.93;;
69410;SDS011;56604;48.652;9.194;2023-04-06T05:40:39;17.50;;;8.80;;
69410;SDS011;56604;48.652;9.194;2023-04-06T05:43:06;13.90;;;8.23;;
69410;SDS011;56604;48.652;9.194;2023-04-06T05:45:32;9.17;;;7.10;;
69410;SDS011;56604;48.652;9.194;2023-04-06T05:47:57;11.80;;;8.60;;
69410;SDS011;56604;48.652;9.194;2023-04-06T05:50:22;13.63;;;8.70;;
69410;SDS011;56604;48.652;9.194;2023-04-06T05:52:48;13.60;;;7.70;;
69410;SDS011;56604;48.652;9.194;2023-04-06T05:55:13;13.90;;;8.83;;
69410;SDS011;56604;48.652;9.194;2023-04-06T05:57:38;13.47;;;8.50;;
69410;SDS011;56604;48.652;9.194;2023-04-06T06:00:04;18.00;;;8.73;;
69410;SDS011;56604;48.652;9.194;2023-04-06T06:02:33;13.97;;;8.23;;
69410;SDS011;56604;48.652;9.194;2023-04-06T06:04:59;14.53;;;9.13;;
69410;SDS011;56604;48.652;9.194;2023-04-06T06:07:25;11.07;;;8.77;;
69410;SDS011;56604;48.652;9.194;2023-04-06T06:09:50;12.70;;;8.57;;
69410;SDS011;56604;48.652;9.194;2023-04-06T06:12:15;12.30;;;8.93;;
69410;SDS011;56604;48.652;9.194;2023-04-06T06:14:41;10.27;;;8.07;;
69410;SDS011;56604;48.652;9.194;2023-04-06T06:17:06;16.80;;;9.50;;
69410;SDS011;56604;48.652;9.194;2023-04-06T06:19:32;13.07;;;8.90;;
69410;SDS011;56604;48.652;9.194;2023-04-06T06:21:57;10.60;;;8.97;;
69410;SDS011;56604;48.652;9.194;2023-04-06T06:24:23;14.83;;;9.07;;
69410;SDS011;56604;48.652;9.194;2023-04-06T06:26:49;9.40;;;8.13;;
69410;SDS011;56604;48.652;9.194;2023-04-06T06:29:14;19.00;;;8.63;;
69410;SDS011;56604;48.652;9.194;2023-04-06T06:31:40;12.27;;;9.33;;
69410;SDS011;56604;48.652;9.194;2023-04-06T06:34:05;13.40;;;9.43;;
69410;SDS011;56604;48.652;9.194;2023-04-06T06:36:31;11.53;;;9.23;;
69410;SDS011;56604;48.652;9.194;2023-04-06T06:38:57;15.13;;;9.20;;
69410;SDS011;56604;48.652;9.194;2023-04-06T06:41:23;17.00;;;9.00;;
69410;SDS011;56604;48.652;9.194;2023-04-06T06:43:49;14.50;;;9.07;;
69410;SDS011;56604;48.652;9.194;2023-04-06T06:46:14;17.17;;;9.63;;
69410;SDS011;56604;48.652;9.194;2023-04-06T06:48:40;11.57;;;8.90;;
69410;SDS011;56604;48.652;9.194;2023-04-06T06:51:05;11.77;;;8.73;;
69410;SDS011;56604;48.652;9.194;2023-04-06T06:53:31;13.17;;;9.63;;
69410;SDS011;56604;48.652;9.194;2023-04-06T06:55:56;11.20;;;8.50;;
69410;SDS011;56604;48.652;9.194;2023-04-06T06:58:21;11.70;;;8.90;;
69410;SDS011;56604;48.652;9.194;2023-04-06T07:00:47;10.30;;;8.77;;
69410;SDS011;56604;48.652;9.194;2023-04-06T07:03:12;11.90;;;9.03;;
69410;SDS011;56604;48.652;9.194;2023-04-06T07:05:38;13.87;;;9.37;;
69410;SDS011;56604;48.652;9.194;2023-04-06T07:08:03;11.93;;;10.00;;
69410;SDS011;56604;48.652;9.194;2023-04-06T07:10:29;14.00;;;9.80;;
69410;SDS011;56604;48.652;9.194;2023-04-06T07:12:54;11.63;;;7.77;;
69410;SDS011;56604;48.652;9.194;2023-04-06T07:15:20;15.47;;;9.17;;
69410;SDS011;56604;48.652;9.194;2023-04-06T07:17:45;12.80;;;9.30;;
69410;SDS011;56604;48.652;9.194;2023-04-06T07:20:11;14.30;;;10.23;;
69410;SDS011;56604;48.652;9.194;2023-04-06T07:22:38;12.47;;;9.10;;
69410;SDS011;56604;48.652;9.194;2023-04-06T07:25:04;17.00;;;9.00;;
69410;SDS011;56604;48.652;9.194;2023-04-06T07:27:29;10.53;;;8.70;;
69410;SDS011;56604;48.652;9.194;2023-04-06T07:29:55;15.23;;;8.63;;
69410;SDS011;56604;48.652;9.194;2023-04-06T07:32:20;12.30;;;9.13;;
69410;SDS011;56604;48.652;9.194;2023-04-06T07:34:46;11.37;;;8.40;;
69410;SDS011;56604;48.652;9.194;2023-04-06T07:37:11;17.33;;;8.90;;
69410;SDS011;56604;48.652;9.194;2023-04-06T07:39:37;12.50;;;8.93;;
69410;SDS011;56604;48.652;9.194;2023-04-06T07:42:02;13.03;;;9.20;;
69410;SDS011;56604;48.652;9.194;2023-04-06T07:44:28;11.17;;;9.00;;
69410;SDS011;56604;48.652;9.194;2023-04-06T07:46:53;10.47;;;8.40;;
69410;SDS011;56604;48.652;9.194;2023-04-06T07:49:19;11.10;;;9.50;;
69410;SDS011;56604;48.652;9.194;2023-04-06T07:51:45;13.30;;;8.60;;
69410;SDS011;56604;48.652;9.194;2023-04-06T07:54:11;12.47;;;8.83;;
69410;SDS011;56604;48.652;9.194;2023-04-06T07:56:36;11.10;;;8.57;;
69410;SDS011;56604;48.652;9.194;2023-04-06T07:59:02;9.80;;;8.43;;
69410;SDS011;56604;48.652;9.194;2023-04-06T08:01:28;12.30;;;9.10;;
69410;SDS011;56604;48.652;9.194;2023-04-06T08:03:53;11.70;;;9.57;;
69410;SDS011;56604;48.652;9.194;2023-04-06T08:06:20;11.17;;;9.20;;
69410;SDS011;56604;48.652;9.194;2023-04-06T08:08:45;13.67;;;8.70;;
69410;SDS011;56604;48.652;9.194;2023-04-06T08:11:11;12.53;;;9.23;;
69410;SDS011;56604;48.652;9.194;2023-04-06T08:13:36;12.33;;;8.90;;
69410;SDS011;56604;48.652;9.194;2023-04-06T08:16:01;16.30;;;9.60;;
69410;SDS011;56604;48.652;9.194;2023-04-06T08:18:27;9.97;;;8.20;;
69410;SDS011;56604;48.652;9.194;2023-04-06T08:20:54;11.57;;;8.83;;
69410;SDS011;56604;48.652;9.194;2023-04-06T08:23:20;16.40;;;9.63;;
69410;SDS011;56604;48.652;9.194;2023-04-06T08:25:45;12.03;;;9.30;;
69410;SDS011;56604;48.652;9.194;2023-04-06T08:28:11;12.03;;;9.30;;
69410;SDS011;56604;48.652;9.194;2023-04-06T08:30:36;12.43;;;9.40;;
69410;SDS011;56604;48.652;9.194;2023-04-06T08:33:05;13.60;;;9.30;;
69410;SDS011;56604;48.652;9.194;2023-04-06T08:35:30;11.93;;;9.50;;
69410;SDS011;56604;48.652;9.194;2023-04-06T08:37:56;13.27;;;9.97;;
69410;SDS011;56604;48.652;9.194;2023-04-06T08:40:22;13.80;;;8.83;;
69410;SDS011;56604;48.652;9.194;2023-04-06T08:42:57;11.70;;;8.57;;
69410;SDS011;56604;48.652;9.194;2023-04-06T08:45:24;11.63;;;8.97;;
69410;SDS011;56604;48.652;9.194;2023-04-06T08:47:51;15.60;;;9.63;;
69410;SDS011;56604;48.652;9.194;2023-04-06T08:50:17;12.33;;;8.97;;
69410;SDS011;56604;48.652;9.194;2023-04-06T08:52:44;15.20;;;10.07;;
69410;SDS011;56604;48.652;9.194;2023-04-06T08:55:12;15.10;;;8.57;;
69410;SDS011;56604;48.652;9.194;2023-04-06T08:57:37;12.57;;;9.10;;
69410;SDS011;56604;48.652;9.194;2023-04-06T09:00:03;11.43;;;9.23;;
69410;SDS011;56604;48.652;9.194;2023-04-06T09:02:29;17.63;;;9.27;;
69410;SDS011;56604;48.652;9.194;2023-04-06T09:04:55;14.10;;;9.53;;
69410;SDS011;56604;48.652;9.194;2023-04-06T09:07:21;11.37;;;9.10;;
69410;SDS011;56604;48.652;9.194;2023-04-06T09:09:47;17.47;;;9.73;;
69410;SDS011;56604;48.652;9.194;2023-04-06T09:12:25;14.20;;;9.40;;
69410;SDS011;56604;48.652;9.194;2023-04-06T09:14:52;17.43;;;9.40;;
69410;SDS011;56604;48.652;9.194;2023-04-06T09:17:22;10.73;;;8.60;;
69410;SDS011;56604;48.652;9.194;2023-04-06T09:19:48;12.93;;;9.37;;
69410;SDS011;56604;48.652;9.194;2023-04-06T09:22:14;11.90;;;9.37;;
69410;SDS011;56604;48.652;9.194;2023-04-06T09:24:43;13.90;;;10.50;;
69410;SDS011;56604;48.652;9.194;2023-04-06T09:27:10;15.23;;;10.70;;
69410;SDS011;56604;48.652;9.194;2023-04-06T09:29:36;13.80;;;9.40;;
69410;SDS011;56604;48.652;9.194;2023-04-06T09:32:05;12.10;;;9.73;;
69410;SDS011;56604;48.652;9.194;2023-04-06T09:34:32;14.83;;;9.70;;
69410;SDS011;56604;48.652;9.194;2023-04-06T09:36:58;13.93;;;9.67;;
69410;SDS011;56604;48.652;9.194;2023-04-06T09:39:23;12.13;;;9.00;;
69410;SDS011;56604;48.652;9.194;2023-04-06T09:41:52;11.30;;;8.37;;
69410;SDS011;56604;48.652;9.194;2023-04-06T09:44:19;12.10;;;7.97;;
69410;SDS011;56604;48.652;9.194;2023-04-06T09:46:45;13.30;;;9.00;;
69410;SDS011;56604;48.652;9.194;2023-04-06T09:49:12;14.03;;;8.60;;
69410;SDS011;56604;48.652;9.194;2023-04-06T09:51:49;13.90;;;9.17;;
69410;SDS011;56604;48.652;9.194;2023-04-06T09:55:02;7.70;;;5.77;;
69410;SDS011;56604;48.652;9.194;2023-04-06T09:57:24;12.90;;;8.37;;
69410;SDS011;56604;48.652;9.194;2023-04-06T10:02:34;6.50;;;5.83;;
69410;SDS011;56604;48.652;9.194;2023-04-06T10:05:12;9.57;;;7.00;;
69410;SDS011;56604;48.652;9.194;2023-04-06T10:07:41;11.97;;;8.07;;
69410;SDS011;56604;48.652;9.194;2023-04-06T10:10:07;9.20;;;7.37;;
69410;SDS011;56604;48.652;9.194;2023-04-06T10:12:34;10.23;;;7.87;;
69410;SDS011;56604;48.652;9.194;2023-04-06T10:15:01;13.57;;;8.50;;
69410;SDS011;56604;48.652;9.194;2023-04-06T10:17:26;11.63;;;7.90;;
69410;SDS011;56604;48.652;9.194;2023-04-06T10:19:58;16.13;;;9.13;;
69410;SDS011;56604;48.652;9.194;2023-04-06T10:22:30;12.47;;;8.63;;
69410;SDS011;56604;48.652;9.194;2023-04-06T10:25:01;11.20;;;8.33;;
69410;SDS011;56604;48.652;9.194;2023-04-06T10:27:28;12.47;;;9.00;;
69410;SDS011;56604;48.652;9.194;2023-04-06T10:29:54;11.60;;;8.00;;
69410;SDS011;56604;48.652;9.194;2023-04-06T10:32:36;12.60;;;9.50;;
69410;SDS011;56604;48.652;9.194;2023-04-06T10:35:09;14.20;;;9.17;;
69410;SDS011;56604;48.652;9.194;2023-04-06T10:40:31;14.00;;;8.03;;
69410;SDS011;56604;48.652;9.194;2023-04-06T10:43:07;11.60;;;7.73;;
69410;SDS011;56604;48.652;9.194;2023-04-06T10:45:33;11.37;;;7.87;;
69410;SDS011;56604;48.652;9.194;2023-04-06T10:48:00;7.93;;;7.17;;
69410;SDS011;56604;48.652;9.194;2023-04-06T10:50:37;14.03;;;7.73;;
69410;SDS011;56604;48.652;9.194;2023-04-06T10:53:05;11.07;;;7.40;;
69410;SDS011;56604;48.652;9.194;2023-04-06T10:55:31;8.10;;;5.80;;
69410;SDS011;56604;48.652;9.194;2023-04-06T10:57:56;12.93;;;7.00;;
69410;SDS011;56604;48.652;9.194;2023-04-06T11:00:22;6.57;;;5.90;;
69410;SDS011;56604;48.652;9.194;2023-04-06T11:02:48;7.53;;;6.13;;
69410;SDS011;56604;48.652;9.194;2023-04-06T11:05:14;6.77;;;5.80;;
69410;SDS011;56604;48.652;9.194;2023-04-06T11:07:40;7.60;;;5.83;;
69410;SDS011;56604;48.652;9.194;2023-04-06T11:10:06;9.50;;;6.40;;
69410;SDS011;56604;48.652;9.194;2023-04-06T11:12:33;8.20;;;7.10;;
69410;SDS011;56604;48.652;9.194;2023-04-06T11:14:59;7.43;;;6.30;;
69410;SDS011;56604;48.652;9.194;2023-04-06T11:17:36;8.33;;;6.23;;
69410;SDS011;56604;48.652;9.194;2023-04-06T11:20:02;7.60;;;5.40;;
69410;SDS011;56604;48.652;9.194;2023-04-06T11:22:29;6.87;;;4.83;;
69410;SDS011;56604;48.652;9.194;2023-04-06T11:25:04;23.60;;;6.10;;
69410;SDS011;56604;48.652;9.194;2023-04-06T11:27:31;6.50;;;5.60;;
69410;SDS011;56604;48.652;9.194;2023-04-06T11:29:57;7.13;;;5.80;;
69410;SDS011;56604;48.652;9.194;2023-04-06T11:32:24;7.50;;;5.90;;
69410;SDS011;56604;48.652;9.194;2023-04-06T11:34:49;7.47;;;5.90;;
69410;SDS011;56604;48.652;9.194;2023-04-06T11:37:15;7.90;;;5.77;;
69410;SDS011;56604;48.652;9.194;2023-04-06T11:39:43;8.40;;;5.47;;
69410;SDS011;56604;48.652;9.194;2023-04-06T11:42:20;7.80;;;5.80;;
69410;SDS011;56604;48.652;9.194;2023-04-06T11:44:49;7.83;;;6.03;;
69410;SDS011;56604;48.652;9.194;2023-04-06T11:47:16;6.60;;;5.90;;
69410;SDS011;56604;48.652;9.194;2023-04-06T11:49:42;11.50;;;6.17;;
69410;SDS011;56604;48.652;9.194;2023-04-06T11:54:52;7.70;;;6.07;;
69410;SDS011;56604;48.652;9.194;2023-04-06T11:57:20;8.93;;;5.00;;
69410;SDS011;56604;48.652;9.194;2023-04-06T11:59:46;7.40;;;5.37;;
69410;SDS011;56604;48.652;9.194;2023-04-06T12:02:12;10.73;;;6.17;;
69410;SDS011;56604;48.652;9.194;2023-04-06T12:04:37;10.30;;;6.70;;
69410;SDS011;56604;48.652;9.194;2023-04-06T12:07:03;8.53;;;6.60;;
69410;SDS011;56604;48.652;9.194;2023-04-06T12:09:29;10.43;;;8.00;;
69410;SDS011;56604;48.652;9.194;2023-04-06T12:11:55;11.00;;;7.30;;
69410;SDS011;56604;48.652;9.194;2023-04-06T12:14:21;9.00;;;6.40;;
69410;SDS011;56604;48.652;9.194;2023-04-06T12:16:47;10.67;;;6.83;;
69410;SDS011;56604;48.652;9.194;2023-04-06T12:19:12;10.43;;;7.60;;
69410;SDS011;56604;48.652;9.194;2023-04-06T12:21:37;10.40;;;7.20;;
69410;SDS011;56604;48.652;9.194;2023-04-06T12:24:03;10.10;;;6.50;;
69410;SDS011;56604;48.652;9.194;2023-04-06T12:26:30;9.00;;;7.13;;
69410;SDS011;56604;48.652;9.194;2023-04-06T12:28:56;17.10;;;7.17;;
69410;SDS011;56604;48.652;9.194;2023-04-06T12:31:24;8.33;;;6.23;;
69410;SDS011;56604;48.652;9.194;2023-04-06T12:33:50;9.07;;;6.77;;
69410;SDS011;56604;48.652;9.194;2023-04-06T12:36:17;8.43;;;5.90;;
69410;SDS011;56604;48.652;9.194;2023-04-06T12:38:46;8.80;;;6.37;;
69410;SDS011;56604;48.652;9.194;2023-04-06T12:41:12;11.10;;;6.73;;
69410;SDS011;56604;48.652;9.194;2023-04-06T12:43:39;9.80;;;7.40;;
69410;SDS011;56604;48.652;9.194;2023-04-06T12:46:05;7.63;;;6.20;;
69410;SDS011;56604;48.652;9.194;2023-04-06T12:48:30;11.73;;;6.53;;
69410;SDS011;56604;48.652;9.194;2023-04-06T12:50:59;9.50;;;5.50;;
69410;SDS011;56604;48.652;9.194;2023-04-06T12:53:26;12.33;;;7.07;;
69410;SDS011;56604;48.652;9.194;2023-04-06T12:55:53;11.33;;;6.47;;
69410;SDS011;56604;48.652;9.194;2023-04-06T12:58:20;8.17;;;6.37;;
69410;SDS011;56604;48.652;9.194;2023-04-06T13:00:46;7.97;;;6.10;;
69410;SDS011;56604;48.652;9.194;2023-04-06T13:03:12;5.60;;;5.07;;
69410;SDS011;56604;48.652;9.194;2023-04-06T13:05:46;9.70;;;5.50;;
69410;SDS011;56604;48.652;9.194;2023-04-06T13:08:13;6.63;;;5.23;;
69410;SDS011;56604;48.652;9.194;2023-04-06T13:10:57;8.20;;;5.77;;
69410;SDS011;56604;48.652;9.194;2023-04-06T13:13:26;8.20;;;6.13;;
69410;SDS011;56604;48.652;9.194;2023-04-06T13:15:53;5.43;;;4.90;;
69410;SDS011;56604;48.652;9.194;2023-04-06T13:18:20;10.90;;;5.37;;
69410;SDS011;56604;48.652;9.194;2023-04-06T13:20:47;9.90;;;5.47;;
69410;SDS011;56604;48.652;9.194;2023-04-06T13:23:13;10.57;;;6.10;;
69410;SDS011;56604;48.652;9.194;2023-04-06T13:25:39;8.80;;;6.00;;
69410;SDS011;56604;48.652;9.194;2023-04-06T13:28:04;7.00;;;5.40;;
69410;SDS011;56604;48.652;9.194;2023-04-06T13:30:29;7.23;;;5.20;;
69410;SDS011;56604;48.652;9.194;2023-04-06T13:32:55;15.13;;;5.73;;
69410;SDS011;56604;48.652;9.194;2023-04-06T13:35:20;10.77;;;5.60;;
69410;SDS011;56604;48.652;9.194;2023-04-06T13:37:46;9.13;;;5.83;;
69410;SDS011;56604;48.652;9.194;2023-04-06T13:40:11;11.93;;;5.20;;
69410;SDS011;56604;48.652;9.194;2023-04-06T13:42:36;7.13;;;5.43;;
69410;SDS011;56604;48.652;9.194;2023-04-06T13:45:05;6.03;;;4.67;;
69410;SDS011;56604;48.652;9.194;2023-04-06T13:47:30;6.33;;;4.83;;
69410;SDS011;56604;48.652;9.194;2023-04-06T13:49:56;7.10;;;4.90;;
69410;SDS011;56604;48.652;9.194;2023-04-06T13:52:21;6.10;;;5.10;;
69410;SDS011;56604;48.652;9.194;2023-04-06T13:54:48;6.00;;;5.40;;
69410;SDS011;56604;48.652;9.194;2023-04-06T13:57:13;7.93;;;5.90;;
69410;SDS011;56604;48.652;9.194;2023-04-06T13:59:39;12.83;;;5.50;;
69410;SDS011;56604;48.652;9.194;2023-04-06T14:02:05;7.13;;;5.50;;
69410;SDS011;56604;48.652;9.194;2023-04-06T14:04:32;7.10;;;4.90;;
69410;SDS011;56604;48.652;9.194;2023-04-06T14:06:58;7.30;;;5.07;;
69410;SDS011;56604;48.652;9.194;2023-04-06T14:09:24;9.53;;;5.33;;
69410;SDS011;56604;48.652;9.194;2023-04-06T14:11:50;6.13;;;5.53;;
69410;SDS011;56604;48.652;9.194;2023-04-06T14:14:15;6.87;;;5.63;;
69410;SDS011;56604;48.652;9.194;2023-04-06T14:16:42;8.07;;;6.33;;
69410;SDS011;56604;48.652;9.194;2023-04-06T14:19:10;7.27;;;5.17;;
69410;SDS011;56604;48.652;9.194;2023-04-06T14:21:37;5.60;;;5.00;;
69410;SDS011;56604;48.652;9.194;2023-04-06T14:24:13;5.70;;;5.10;;
69410;SDS011;56604;48.652;9.194;2023-04-06T14:26:40;7.47;;;5.43;;
69410;SDS011;56604;48.652;9.194;2023-04-06T14:29:09;8.30;;;5.27;;
69410;SDS011;56604;48.652;9.194;2023-04-06T14:31:35;9.23;;;5.43;;
69410;SDS011;56604;48.652;9.194;2023-04-06T14:34:01;6.13;;;5.13;;
69410;SDS011;56604;48.652;9.194;2023-04-06T14:36:28;5.20;;;4.80;;
69410;SDS011;56604;48.652;9.194;2023-04-06T14:38:54;6.10;;;5.37;;
69410;SDS011;56604;48.652;9.194;2023-04-06T14:41:22;5.57;;;5.07;;